Portada
METAR-TAF:

METAR-TAF

Aeroports :

Ranchi, Índia

latitud: 23-18-51N, longitud: 85-19-18E, altitud: 646 m

Observació

L'informe es va fer fa 1 hora i 34 minuts, a les 21:00 UTC
Vent calma
Temperatura 24°C
Humitat 94%
Pressió 1008 hPa
Visibilitat: 2500 m
Núvols disperses a una alçada de 1500 ft
Cel ennuvolat a una alçada de 10000 ft
calitja

METAR: VERC 302100Z 00000KT 2500 HZ SCT015 BKN100 24/23 Q1008 NOSIG

Hora: 04:04 (22:34 UTC)

Pronòstic

L'informe es va fer fa 2 hores i 34 minuts, a les 20:00 UTC
Pronòstic vàlid del 30 a les 21 UTC al 01 a les 06 UTC
Vent kt del Nord
Visibilitat: 3000 m
Núvols disperses a una alçada de 1800 ft
Cel ennuvolat a una alçada de 10000 ft
calitja
Evolucionant progressivament
l' 01 a les 04 UTC al 01 a les 06 UTC
Vent 4 kt del Sud-Oest
Visibilitat: 4000 m
calitja

TAF: VERC 302000Z 3021/0106 00000KT 3000 HZ SCT018 BKN100 BECMG 0104/0106 23004KT 4000 HZ

Observacions i pronòstics meteorològics de més de 4000 aeroports (METAR i TAF).

Les estacions disponibles són els punts grocs i vermells al mapa.

Posi el ratolí al punt desitjat per veure el nom de l'estació.

Feu clic per veure les observacions i els pronòstics meteorològics.

Per canviar el mapa: feu clic els botons verds amb una creu de color negre per apropar; al botó verd amb un guió per allunyar la imatge; o en les fletxes verdes per a mapes adjacents.


METAR-TAF: